Terminal Aerodrome Forecast
Issued by NWS Sterling, VA

Current Version | Previous Version | Graphics & Text | Print | Product List | Glossary On
Versions: 1 2 3 4 5 6 7 8 9 10 11 12 13 14
000
FTUS41 KLWX 170536
TAFMRB
TAF
KMRB 170536Z 1706/1806 18005KT 6SM -SHRA OVC035
     FM170900 19010G16KT P6SM SCT025 OVC050
     FM171500 25006KT P6SM OVC040
     FM172000 31007KT P6SM BKN040
     FM172300 32005KT P6SM SCT040=

USA.gov is the U.S. government's official web portal to all federal, state and local government web resources and services.